New Horizon — WKWB — position and weather

sailwx.info

Track history (hours):
 
Tides and Currents Weather Stations Pressure Air Temp Water Temp Dewpoint Dewpoint Depression Visibility Wind Speed Wind Dir Waves Ship Positions

Oceanographic research ship New Horizon (USA)

Detailed information on ship capabilities available from University of Delaware's Ocean Information Center.

Owner: Bold Horizon, LLC., Annapolis, MD. More information available from US FCC via Universal Licensing System and Coast Guard Vessel Documentation Center.

Last reported at 2019-Sep-15 14:23 UTC. Time now 2019-Sep-18 11:51 UTC.
Position N 35°03' W 121°20'.

Type: Other ship. MMSI: 303273000.

Date/timePositionNaut miles runAvg speedWind from/ knotsBaromVisibWave heightAir tempDewpointWater temp
2019-Sep-15 14:23N 35°03' W 121°20'6 2.0
2019-Sep-15 11:20N 34°60' W 121°13'11 0.9
2019-Sep-14 23:25N 34°52' W 121°23'1 2.3
2019-Sep-14 23:00N 34°51' W 121°23'0 0.9
2019-Sep-14 22:31N 34°51' W 121°23'0 0.7
2019-Sep-14 22:00N 34°51' W 121°23'6 2.6
2019-Sep-14 19:40N 34°57' W 121°24'14 1.9
2019-Sep-14 12:08N 34°45' W 121°14'1 9.8
2019-Sep-14 12:00N 34°44' W 121°14'6 0.4
2019-Sep-13 22:12N 34°41' W 121°09'18 3.7
2019-Sep-13 17:26N 34°32' W 120°50'510.2
2019-Sep-13 16:59N 34°32' W 120°44'3 3.1
2019-Sep-13 16:03N 34°32' W 120°48'39 5.4
2019-Sep-13 08:47N 34°08' W 120°10'3 9.8
2019-Sep-13 08:28N 34°07' W 120°07'810.4
2019-Sep-13 07:42N 34°03' W 119°59'210.7
2019-Sep-13 07:28N 34°01' W 119°57'510.7
2019-Sep-13 07:00N 33°57' W 119°53'510.4
2019-Sep-13 06:30N 33°54' W 119°48'510.6
2019-Sep-13 06:00N 33°52' W 119°42'510.6
2019-Sep-13 05:30N 33°49' W 119°37'510.7
2019-Sep-13 05:00N 33°46' W 119°31'510.5
2019-Sep-13 04:30N 33°44' W 119°25'510.7
2019-Sep-13 04:00N 33°41' W 119°20'510.3
2019-Sep-13 03:30N 33°39' W 119°14'610.4
2019-Sep-13 02:55N 33°36' W 119°08'410.3
2019-Sep-13 02:30N 33°34' W 119°03'1110.4
2019-Sep-13 01:28N 33°29' W 118°52'510.0
2019-Sep-13 00:59N 33°26' W 118°47'510.0
2019-Sep-13 00:30N 33°23' W 118°42'510.0
2019-Sep-13 00:00N 33°20' W 118°38'5 9.9
2019-Sep-12 23:30N 33°18' W 118°33'510.0
2019-Sep-12 23:00N 33°15' W 118°28'5 9.8
2019-Sep-12 22:31N 33°12' W 118°23'5 9.5
2019-Sep-12 22:00N 33°10' W 118°18'5 9.4
2019-Sep-12 21:30N 33°07' W 118°13'5 9.7
2019-Sep-12 21:00N 33°04' W 118°09'5 9.9
2019-Sep-12 20:30N 33°02' W 118°03'5 9.9
2019-Sep-12 20:00N 32°59' W 117°58'510.0
2019-Sep-12 19:30N 32°57' W 117°53'510.1
2019-Sep-12 19:00N 32°54' W 117°48'510.2
2019-Sep-12 18:30N 32°51' W 117°43'510.5
2019-Sep-12 18:00N 32°49' W 117°38'510.4
2019-Sep-12 17:30N 32°46' W 117°32'510.5
2019-Sep-12 17:00N 32°43' W 117°27'5 9.9
2019-Sep-12 16:30N 32°40' W 117°23'510.3
2019-Sep-12 16:00N 32°37' W 117°18'5 9.1
2019-Sep-12 15:30N 32°40' W 117°13'0 0.3
2019-Sep-12 15:00N 32°39' W 117°13'0 0.3
2019-Sep-12 14:30N 32°39' W 117°13'2 4.3
2019-Sep-12 14:00N 32°41' W 117°14'3 6.6
2019-Sep-12 13:30N 32°42' W 117°10'1 1.9
2019-Sep-12 13:00N 32°42' W 117°09'0 0.0
2019-Sep-12 12:30N 32°42' W 117°09'0 0.0
2019-Sep-12 12:00N 32°42' W 117°09'0 0.0
2019-Sep-12 11:30N 32°42' W 117°09'0 0.0
2019-Sep-12 11:00N 32°42' W 117°09'0 0.0
2019-Sep-12 10:27N 32°42' W 117°09'0 0.0
2019-Sep-12 10:00N 32°42' W 117°09'0 0.0
2019-Sep-12 09:30N 32°42' W 117°09'0 0.0
2019-Sep-12 09:00N 32°42' W 117°09'0 0.0
2019-Sep-12 08:30N 32°42' W 117°09'0 0.0
2019-Sep-12 08:00N 32°42' W 117°09'0 0.0
2019-Sep-12 07:30N 32°42' W 117°09'0 0.0
2019-Sep-12 07:00N 32°42' W 117°09'0 0.0
2019-Sep-12 06:30N 32°42' W 117°09'0 0.0
2019-Sep-12 06:00N 32°42' W 117°09'0 0.0
2019-Sep-12 05:30N 32°42' W 117°09'0 0.0
2019-Sep-12 05:00N 32°42' W 117°09'0 0.0
2019-Sep-12 04:30N 32°42' W 117°09'0 0.0
2019-Sep-12 04:00N 32°42' W 117°09'0 0.0
2019-Sep-12 03:30N 32°42' W 117°09'0 0.0
2019-Sep-12 03:00N 32°42' W 117°09'0 0.0
2019-Sep-12 02:30N 32°42' W 117°09'0 0.0
2019-Sep-12 02:00N 32°42' W 117°09'0 0.0
2019-Sep-12 01:30N 32°42' W 117°09'0 0.0
2019-Sep-12 01:00N 32°42' W 117°09'0 0.0
2019-Sep-12 00:30N 32°42' W 117°09'0 0.0
2019-Sep-11 23:59N 32°42' W 117°09'0 0.0
2019-Sep-11 23:29N 32°42' W 117°09'0 0.0
2019-Sep-11 22:59N 32°42' W 117°09'0 0.0
2019-Sep-11 22:29N 32°42' W 117°09'0 0.0
2019-Sep-11 21:59N 32°42' W 117°09'0 0.0
2019-Sep-11 21:29N 32°42' W 117°09'0 0.0
2019-Sep-11 20:59N 32°42' W 117°09'0 0.0
2019-Sep-11 20:29N 32°42' W 117°09'0 0.0
2019-Sep-11 19:59N 32°42' W 117°09'0 0.0
2019-Sep-11 19:29N 32°42' W 117°09'0 0.0
2019-Sep-11 18:59N 32°42' W 117°09'0 0.0
2019-Sep-11 18:29N 32°42' W 117°09'0 0.0
2019-Sep-11 17:59N 32°42' W 117°09'0 0.0
2019-Sep-11 17:29N 32°42' W 117°09'0 0.0
2019-Sep-11 16:59N 32°42' W 117°09'0 0.0
2019-Sep-11 16:29N 32°42' W 117°09'0 0.0
2019-Sep-11 15:59N 32°42' W 117°09'0 0.0
2019-Sep-11 15:29N 32°42' W 117°09'0 0.0
2019-Sep-11 14:59N 32°42' W 117°09'0 0.0
2019-Sep-11 14:29N 32°42' W 117°09'0 0.0
2019-Sep-11 13:59N 32°42' W 117°09'0 0.0
2019-Sep-11 13:29N 32°42' W 117°09'0 0.0
2019-Sep-11 12:59N 32°42' W 117°09'0 0.0
2019-Sep-11 12:29N 32°42' W 117°09'0 0.0
2019-Sep-11 11:59N 32°42' W 117°09'0 0.0
2019-Sep-11 11:29N 32°42' W 117°09'0 0.0
2019-Sep-11 10:59N 32°42' W 117°09'0 0.0
2019-Sep-11 10:29N 32°42' W 117°09'0 0.0
2019-Sep-11 09:59N 32°42' W 117°09'0 0.0
2019-Sep-11 09:29N 32°42' W 117°09'0 0.0
2019-Sep-11 08:59N 32°42' W 117°09'0 0.0
2019-Sep-11 08:29N 32°42' W 117°09'0 0.0
2019-Sep-11 07:56N 32°42' W 117°09'0 0.0
2019-Sep-11 07:26N 32°42' W 117°09'0 0.0
2019-Sep-11 06:59N 32°42' W 117°09'0 0.0
2019-Sep-11 06:29N 32°42' W 117°09'0 0.0
2019-Sep-11 05:59N 32°42' W 117°09'0 0.0
2019-Sep-11 05:29N 32°42' W 117°09'0 0.0
2019-Sep-11 04:59N 32°42' W 117°09'0 0.0
2019-Sep-11 04:29N 32°42' W 117°09'0 0.0
2019-Sep-11 03:59N 32°42' W 117°09'0 0.0
2019-Sep-11 03:29N 32°42' W 117°09'0 0.0
2019-Sep-11 02:59N 32°42' W 117°09'0 0.0
2019-Sep-11 02:29N 32°42' W 117°09'0 0.0
2019-Sep-11 01:59N 32°42' W 117°09'0 0.0
2019-Sep-11 01:29N 32°42' W 117°09'0 0.0
2019-Sep-11 01:01N 32°42' W 117°09'0 0.0
2019-Sep-11 00:31N 32°42' W 117°09'0 0.0
2019-Sep-11 00:01N 32°42' W 117°09'0 0.0
2019-Sep-10 21:36N 32°42' W 117°09'0 0.0
2019-Sep-10 21:30N 32°42' W 117°09'0 0.0
2019-Sep-10 20:58N 32°42' W 117°09'0 0.0
2019-Sep-10 20:28N 32°42' W 117°09'0 0.0
2019-Sep-10 19:58N 32°42' W 117°09'0 0.0
2019-Sep-10 19:28N 32°42' W 117°09'0 0.0
2019-Sep-10 18:58N 32°42' W 117°09'0 0.0
2019-Sep-10 18:28N 32°42' W 117°09'0 0.0
2019-Sep-10 17:58N 32°42' W 117°09'0 0.0
2019-Sep-10 17:28N 32°42' W 117°09'0 0.0
2019-Sep-10 17:01N 32°42' W 117°09'0 0.0
2019-Sep-10 16:31N 32°42' W 117°09'0 0.0
2019-Sep-10 16:00N 32°42' W 117°09'0 0.0
2019-Sep-10 15:30N 32°42' W 117°09'0 0.0
2019-Sep-10 14:57N 32°42' W 117°09'0 0.0
2019-Sep-10 14:30N 32°42' W 117°09'0 0.0
2019-Sep-10 14:00N 32°42' W 117°09'0 0.0
2019-Sep-10 13:30N 32°42' W 117°09'0 0.0
2019-Sep-10 13:00N 32°42' W 117°09'0 0.0
2019-Sep-10 12:30N 32°42' W 117°09'0 0.0
2019-Sep-10 12:00N 32°42' W 117°09'0 0.0
2019-Sep-10 11:30N 32°42' W 117°09'0 0.0
2019-Sep-10 11:00N 32°42' W 117°09'0 0.0
2019-Sep-10 10:30N 32°42' W 117°09'0 0.0
2019-Sep-10 10:00N 32°42' W 117°09'0 0.0
2019-Sep-10 09:30N 32°42' W 117°09'0 0.0
2019-Sep-10 09:00N 32°42' W 117°09'0 0.0
2019-Sep-10 08:30N 32°42' W 117°09'0 0.0
2019-Sep-10 08:00N 32°42' W 117°09'0 0.0
2019-Sep-10 07:30N 32°42' W 117°09'0 0.0
2019-Sep-10 07:00N 32°42' W 117°09'0 0.0
2019-Sep-10 06:30N 32°42' W 117°09'0 0.0
2019-Sep-10 06:00N 32°42' W 117°09'0 0.0
2019-Sep-10 05:30N 32°42' W 117°09'0 0.0
2019-Sep-10 05:00N 32°42' W 117°09'0 0.0
2019-Sep-10 04:30N 32°42' W 117°09'0 0.0
2019-Sep-10 04:00N 32°42' W 117°09'0 0.0
2019-Sep-10 03:30N 32°42' W 117°09'0 0.0
2019-Sep-10 03:00N 32°42' W 117°09'0 0.0
2019-Sep-10 02:30N 32°42' W 117°09'0 0.8
2019-Sep-10 02:00N 32°42' W 117°10'0 0.0
2019-Sep-10 01:30N 32°42' W 117°10'0 0.0
2019-Sep-10 01:00N 32°42' W 117°10'0 0.0
2019-Sep-10 00:30N 32°42' W 117°10'0 0.0
2019-Sep-10 00:00N 32°42' W 117°10'0 0.0
2019-Sep-09 23:30N 32°42' W 117°10'0 0.0
2019-Sep-09 23:00N 32°42' W 117°10'0 0.0
2019-Sep-09 22:30N 32°42' W 117°10'0 0.0
2019-Sep-09 22:00N 32°42' W 117°10'0 0.0
2019-Sep-09 21:30N 32°42' W 117°10'0 0.0
2019-Sep-09 21:00N 32°42' W 117°10'0 0.0
2019-Sep-09 20:30N 32°42' W 117°10'0 0.0
2019-Sep-09 20:00N 32°42' W 117°10'0 0.0
2019-Sep-09 19:30N 32°42' W 117°10'0 0.0
2019-Sep-09 19:00N 32°42' W 117°10'0 0.0
2019-Sep-09 18:30N 32°42' W 117°10'0 0.0
2019-Sep-09 18:00N 32°42' W 117°10'0 0.0
2019-Sep-09 17:30N 32°42' W 117°10'0 0.0
2019-Sep-09 17:00N 32°42' W 117°10'0 0.0
2019-Sep-09 16:30N 32°42' W 117°10'0 0.0
2019-Sep-09 16:00N 32°42' W 117°10'0 0.0
2019-Sep-09 15:30N 32°42' W 117°10'0 0.0
2019-Sep-09 15:00N 32°42' W 117°10'0 0.0
2019-Sep-09 14:30N 32°42' W 117°10'0 0.7
2019-Sep-09 14:01N 32°42' W 117°09'0 0.2
2019-Sep-09 13:30N 32°42' W 117°09'0 0.0
2019-Sep-09 13:00N 32°42' W 117°09'0 0.0
2019-Sep-09 12:30N 32°42' W 117°09'0 0.0
2019-Sep-09 12:00N 32°42' W 117°09'0 0.0
2019-Sep-09 11:30N 32°42' W 117°09'0 0.0
2019-Sep-09 11:00N 32°42' W 117°09'0 0.0
2019-Sep-09 10:30N 32°42' W 117°09'0 0.0
2019-Sep-09 10:00N 32°42' W 117°09'0 0.0
2019-Sep-09 09:30N 32°42' W 117°09'0 0.0
2019-Sep-09 09:00N 32°42' W 117°09'0 0.0
2019-Sep-09 08:30N 32°42' W 117°09'0 0.0
2019-Sep-09 08:00N 32°42' W 117°09'0 0.0
2019-Sep-09 07:30N 32°42' W 117°09'0 0.0
2019-Sep-09 07:00N 32°42' W 117°09'0 0.0
2019-Sep-09 06:29N 32°42' W 117°09'0 0.0
2019-Sep-09 05:59N 32°42' W 117°09'0 0.0
2019-Sep-09 05:29N 32°42' W 117°09'0 0.0
2019-Sep-09 04:59N 32°42' W 117°09'0 0.0
2019-Sep-09 04:29N 32°42' W 117°09'0 0.0
2019-Sep-09 03:59N 32°42' W 117°09'0 0.0
2019-Sep-09 03:29N 32°42' W 117°09'0 0.0
2019-Sep-09 02:59N 32°42' W 117°09'0 0.0
2019-Sep-09 01:59N 32°42' W 117°09'0 0.0
2019-Sep-09 01:29N 32°42' W 117°09'0 0.0
2019-Sep-09 00:59N 32°42' W 117°09'0 0.0
2019-Sep-09 00:29N 32°42' W 117°09'0 0.0
2019-Sep-08 23:59N 32°42' W 117°09'0 0.0
2019-Sep-08 23:29N 32°42' W 117°09'0 0.0
2019-Sep-08 22:59N 32°42' W 117°09'0 0.0
2019-Sep-08 22:29N 32°42' W 117°09'0 0.0
2019-Sep-08 21:56N 32°42' W 117°09'0 0.0
2019-Sep-08 21:29N 32°42' W 117°09'0 0.0
2019-Sep-08 20:59N 32°42' W 117°09'0 0.0
2019-Sep-08 20:29N 32°42' W 117°09'0 0.0
2019-Sep-08 19:56N 32°42' W 117°09'0 0.0
2019-Sep-08 19:29N 32°42' W 117°09'0 0.0
2019-Sep-08 18:59N 32°42' W 117°09'0 0.0
2019-Sep-08 18:29N 32°42' W 117°09'0 0.0
2019-Sep-08 17:59N 32°42' W 117°09'0 0.0
2019-Sep-08 17:29N 32°42' W 117°09'0 0.0
2019-Sep-08 16:59N 32°42' W 117°09'0 0.0
2019-Sep-08 16:29N 32°42' W 117°09'0 0.0
2019-Sep-08 15:59N 32°42' W 117°09'0 0.0
2019-Sep-08 15:29N 32°42' W 117°09'0 0.0
2019-Sep-08 14:59N 32°42' W 117°09'0 0.0
2019-Sep-08 14:29N 32°42' W 117°09'0 0.0
2019-Sep-08 13:59N 32°42' W 117°09'0 0.0
2019-Sep-08 13:29N 32°42' W 117°09'0 0.0
2019-Sep-08 12:59N 32°42' W 117°09'0 0.0
2019-Sep-08 12:29N 32°42' W 117°09'0 0.0
2019-Sep-08 11:59N 32°42' W 117°09'0 0.0
2019-Sep-08 11:29N 32°42' W 117°09'0 0.0
2019-Sep-08 10:59N 32°42' W 117°09'0 0.0
2019-Sep-08 10:29N 32°42' W 117°09'0 0.0
2019-Sep-08 09:59N 32°42' W 117°09'0 0.0
2019-Sep-08 09:29N 32°42' W 117°09'0 0.0
2019-Sep-08 08:59N 32°42' W 117°09'0 0.0
2019-Sep-08 08:29N 32°42' W 117°09'0 0.0
2019-Sep-08 07:59N 32°42' W 117°09'0 0.0
2019-Sep-08 07:29N 32°42' W 117°09'0 0.0
2019-Sep-08 06:59N 32°42' W 117°09'0 0.0
2019-Sep-08 06:29N 32°42' W 117°09'0 0.0
2019-Sep-08 05:59N 32°42' W 117°09'0 0.0
2019-Sep-08 05:29N 32°42' W 117°09'0 0.0
2019-Sep-08 04:59N 32°42' W 117°09'0 0.0
2019-Sep-08 04:29N 32°42' W 117°09'0 0.0
2019-Sep-08 03:59N 32°42' W 117°09'0 0.0
2019-Sep-08 03:29N 32°42' W 117°09'0 0.0
2019-Sep-08 02:59N 32°42' W 117°09'0 0.0
2019-Sep-08 02:29N 32°42' W 117°09'0 0.0
2019-Sep-08 01:59N 32°42' W 117°09'0 0.0
2019-Sep-08 01:29N 32°42' W 117°09'0 0.0
2019-Sep-08 00:59N 32°42' W 117°09'0 0.0
2019-Sep-08 00:29N 32°42' W 117°09'0 0.0
2019-Sep-07 23:59N 32°42' W 117°09'0 0.0
2019-Sep-07 23:29N 32°42' W 117°09'0 0.0
2019-Sep-07 22:59N 32°42' W 117°09'0 0.0
2019-Sep-07 22:29N 32°42' W 117°09'0 0.0
2019-Sep-07 21:59N 32°42' W 117°09'0 0.0
2019-Sep-07 21:29N 32°42' W 117°09'0 0.0
2019-Sep-07 20:59N 32°42' W 117°09'0 0.0
2019-Sep-07 20:29N 32°42' W 117°09'0 0.0
2019-Sep-07 19:58N 32°42' W 117°09'0 0.0
2019-Sep-07 19:28N 32°42' W 117°09'1 1.1
2019-Sep-07 18:59N 32°42' W 117°10'0 0.0
2019-Sep-07 18:29N 32°42' W 117°10'0 0.0
2019-Sep-07 17:59N 32°42' W 117°10'0 0.0
2019-Sep-07 17:29N 32°42' W 117°10'0 0.0
2019-Sep-07 16:59N 32°42' W 117°10'0 0.0
2019-Sep-07 16:29N 32°42' W 117°10'0 0.0
2019-Sep-07 15:59N 32°42' W 117°10'0 0.0
2019-Sep-07 15:29N 32°42' W 117°10'0 0.0
2019-Sep-07 14:59N 32°42' W 117°10'0 0.0
2019-Sep-07 14:26N 32°42' W 117°10'0 0.0
2019-Sep-07 13:59N 32°42' W 117°10'0 0.0
2019-Sep-07 13:29N 32°42' W 117°10'0 0.0
2019-Sep-07 12:59N 32°42' W 117°10'0 0.0
2019-Sep-07 12:29N 32°42' W 117°10'0 0.0
2019-Sep-07 11:59N 32°42' W 117°10'0 0.0
2019-Sep-07 11:29N 32°42' W 117°10'0 0.0
2019-Sep-07 10:59N 32°42' W 117°10'0 0.0
2019-Sep-07 10:29N 32°42' W 117°10'0 0.0
2019-Sep-07 09:59N 32°42' W 117°10'0 0.0
2019-Sep-07 09:29N 32°42' W 117°10'0 0.0
2019-Sep-07 08:59N 32°42' W 117°10'0 0.0
2019-Sep-07 08:29N 32°42' W 117°10'0 0.0
2019-Sep-07 07:59N 32°42' W 117°10'0 0.0
2019-Sep-07 07:29N 32°42' W 117°10'0 0.0
2019-Sep-07 06:59N 32°42' W 117°10'0 0.0
2019-Sep-07 06:29N 32°42' W 117°10'0 0.0
2019-Sep-07 05:59N 32°42' W 117°10'0 0.0
2019-Sep-07 05:26N 32°42' W 117°10'0 0.0
2019-Sep-07 04:59N 32°42' W 117°10'0 0.0
2019-Sep-07 04:29N 32°42' W 117°10'0 0.0
2019-Sep-07 03:59N 32°42' W 117°10'0 0.0
2019-Sep-07 03:29N 32°42' W 117°10'0 0.0
2019-Sep-07 02:59N 32°42' W 117°10'0 0.0
2019-Sep-07 02:29N 32°42' W 117°10'0 0.0
2019-Sep-07 01:59N 32°42' W 117°10'0 0.0
2019-Sep-07 01:29N 32°42' W 117°10'0 0.0
2019-Sep-07 00:59N 32°42' W 117°10'0 0.0
2019-Sep-07 00:29N 32°42' W 117°10'0 0.0
2019-Sep-06 23:59N 32°42' W 117°10'0 0.0
2019-Sep-06 23:29N 32°42' W 117°10'0 0.0
2019-Sep-06 22:59N 32°42' W 117°10'0 0.0
2019-Sep-06 22:29N 32°42' W 117°10'0 0.0
2019-Sep-06 21:59N 32°42' W 117°10'0 0.0
2019-Sep-06 21:30N 32°42' W 117°10'0 0.0
2019-Sep-06 21:00N 32°42' W 117°10'0 0.3
2019-Sep-06 20:30N 32°42' W 117°10'4 7.0
2019-Sep-06 20:00N 32°41' W 117°14'4 7.8
2019-Sep-06 19:30N 32°38' W 117°16'510.9
2019-Sep-06 19:00N 32°40' W 117°21'510.7
2019-Sep-06 18:30N 32°43' W 117°27'510.7
2019-Sep-06 18:00N 32°46' W 117°32'510.3
2019-Sep-06 17:30N 32°48' W 117°38'510.1
2019-Sep-06 17:00N 32°51' W 117°43'510.1
2019-Sep-06 16:30N 32°54' W 117°48'5 9.8
2019-Sep-06 16:00N 32°56' W 117°53'5 9.9
2019-Sep-06 15:30N 32°59' W 117°58'4 8.8
2019-Sep-06 15:00N 33°00' W 118°03'5 9.1
2019-Sep-06 14:30N 33°03' W 118°07'5 9.9
2019-Sep-06 14:00N 33°06' W 118°12'510.7
2019-Sep-06 13:30N 33°09' W 118°17'510.9
2019-Sep-06 13:00N 33°11' W 118°23'510.5
2019-Sep-06 12:30N 33°14' W 118°28'510.1
2019-Sep-06 12:00N 33°17' W 118°33'510.1
2019-Sep-06 11:30N 33°20' W 118°38'5 9.8
2019-Sep-06 11:00N 33°22' W 118°43'510.1
2019-Sep-06 10:29N 33°25' W 118°49'510.4
2019-Sep-06 10:00N 33°28' W 118°54'5 9.8
2019-Sep-06 09:28N 33°31' W 118°59'510.1
2019-Sep-06 09:00N 33°33' W 119°03'710.5
2019-Sep-06 08:20N 33°37' W 119°11'310.1
2019-Sep-06 08:00N 33°38' W 119°15'610.0
2019-Sep-06 07:23N 33°41' W 119°21'410.0
2019-Sep-06 06:57N 33°43' W 119°26'410.1
2019-Sep-06 06:30N 33°46' W 119°30'510.2
2019-Sep-06 06:00N 33°48' W 119°36'510.2
2019-Sep-06 05:30N 33°51' W 119°41'510.3
2019-Sep-06 05:00N 33°53' W 119°46'510.5
2019-Sep-06 04:30N 33°56' W 119°52'910.6
2019-Sep-06 03:37N 34°03' W 119°59'  
Track history (hours):
 
Tides and Currents Weather Stations Pressure Air Temp Water Temp Dewpoint Dewpoint Depression Visibility Wind Speed Wind Dir Waves Ship Positions

Oceanographic research ship New Horizon (USA)

Detailed information on ship capabilities available from University of Delaware's Ocean Information Center.

Owner: Bold Horizon, LLC., Annapolis, MD. More information available from US FCC via Universal Licensing System and Coast Guard Vessel Documentation Center.

Last reported at 2019-Sep-15 14:23 UTC. Time now 2019-Sep-18 11:51 UTC.
Position N 35°03' W 121°20'.

Type: Other ship. MMSI: 303273000.

Date/timePositionNaut miles runAvg speedWind from/ knotsBaromVisibWave heightAir tempDewpointWater temp
2019-Sep-15 14:23N 35°03' W 121°20'6 2.0
2019-Sep-15 11:20N 34°60' W 121°13'11 0.9
2019-Sep-14 23:25N 34°52' W 121°23'1 2.3
2019-Sep-14 23:00N 34°51' W 121°23'0 0.9
2019-Sep-14 22:31N 34°51' W 121°23'0 0.7
2019-Sep-14 22:00N 34°51' W 121°23'6 2.6
2019-Sep-14 19:40N 34°57' W 121°24'14 1.9
2019-Sep-14 12:08N 34°45' W 121°14'1 9.8
2019-Sep-14 12:00N 34°44' W 121°14'6 0.4
2019-Sep-13 22:12N 34°41' W 121°09'18 3.7
2019-Sep-13 17:26N 34°32' W 120°50'510.2
2019-Sep-13 16:59N 34°32' W 120°44'3 3.1
2019-Sep-13 16:03N 34°32' W 120°48'39 5.4
2019-Sep-13 08:47N 34°08' W 120°10'3 9.8
2019-Sep-13 08:28N 34°07' W 120°07'810.4
2019-Sep-13 07:42N 34°03' W 119°59'210.7
2019-Sep-13 07:28N 34°01' W 119°57'510.7
2019-Sep-13 07:00N 33°57' W 119°53'510.4
2019-Sep-13 06:30N 33°54' W 119°48'510.6
2019-Sep-13 06:00N 33°52' W 119°42'510.6
2019-Sep-13 05:30N 33°49' W 119°37'510.7
2019-Sep-13 05:00N 33°46' W 119°31'510.5
2019-Sep-13 04:30N 33°44' W 119°25'510.7
2019-Sep-13 04:00N 33°41' W 119°20'510.3
2019-Sep-13 03:30N 33°39' W 119°14'610.4
2019-Sep-13 02:55N 33°36' W 119°08'410.3
2019-Sep-13 02:30N 33°34' W 119°03'1110.4
2019-Sep-13 01:28N 33°29' W 118°52'510.0
2019-Sep-13 00:59N 33°26' W 118°47'510.0
2019-Sep-13 00:30N 33°23' W 118°42'510.0
2019-Sep-13 00:00N 33°20' W 118°38'5 9.9
2019-Sep-12 23:30N 33°18' W 118°33'510.0
2019-Sep-12 23:00N 33°15' W 118°28'5 9.8
2019-Sep-12 22:31N 33°12' W 118°23'5 9.5
2019-Sep-12 22:00N 33°10' W 118°18'5 9.4
2019-Sep-12 21:30N 33°07' W 118°13'5 9.7
2019-Sep-12 21:00N 33°04' W 118°09'5 9.9
2019-Sep-12 20:30N 33°02' W 118°03'5 9.9
2019-Sep-12 20:00N 32°59' W 117°58'510.0
2019-Sep-12 19:30N 32°57' W 117°53'510.1
2019-Sep-12 19:00N 32°54' W 117°48'510.2
2019-Sep-12 18:30N 32°51' W 117°43'510.5
2019-Sep-12 18:00N 32°49' W 117°38'510.4
2019-Sep-12 17:30N 32°46' W 117°32'510.5
2019-Sep-12 17:00N 32°43' W 117°27'5 9.9
2019-Sep-12 16:30N 32°40' W 117°23'510.3
2019-Sep-12 16:00N 32°37' W 117°18'5 9.1
2019-Sep-12 15:30N 32°40' W 117°13'0 0.3
2019-Sep-12 15:00N 32°39' W 117°13'0 0.3
2019-Sep-12 14:30N 32°39' W 117°13'2 4.3
2019-Sep-12 14:00N 32°41' W 117°14'3 6.6
2019-Sep-12 13:30N 32°42' W 117°10'1 1.9
2019-Sep-12 13:00N 32°42' W 117°09'0 0.0
2019-Sep-12 12:30N 32°42' W 117°09'0 0.0
2019-Sep-12 12:00N 32°42' W 117°09'0 0.0
2019-Sep-12 11:30N 32°42' W 117°09'0 0.0
2019-Sep-12 11:00N 32°42' W 117°09'0 0.0
2019-Sep-12 10:27N 32°42' W 117°09'0 0.0
2019-Sep-12 10:00N 32°42' W 117°09'0 0.0
2019-Sep-12 09:30N 32°42' W 117°09'0 0.0
2019-Sep-12 09:00N 32°42' W 117°09'0 0.0
2019-Sep-12 08:30N 32°42' W 117°09'0 0.0
2019-Sep-12 08:00N 32°42' W 117°09'0 0.0
2019-Sep-12 07:30N 32°42' W 117°09'0 0.0
2019-Sep-12 07:00N 32°42' W 117°09'0 0.0
2019-Sep-12 06:30N 32°42' W 117°09'0 0.0
2019-Sep-12 06:00N 32°42' W 117°09'0 0.0
2019-Sep-12 05:30N 32°42' W 117°09'0 0.0
2019-Sep-12 05:00N 32°42' W 117°09'0 0.0
2019-Sep-12 04:30N 32°42' W 117°09'0 0.0
2019-Sep-12 04:00N 32°42' W 117°09'0 0.0
2019-Sep-12 03:30N 32°42' W 117°09'0 0.0
2019-Sep-12 03:00N 32°42' W 117°09'0 0.0
2019-Sep-12 02:30N 32°42' W 117°09'0 0.0
2019-Sep-12 02:00N 32°42' W 117°09'0 0.0
2019-Sep-12 01:30N 32°42' W 117°09'0 0.0
2019-Sep-12 01:00N 32°42' W 117°09'0 0.0
2019-Sep-12 00:30N 32°42' W 117°09'0 0.0
2019-Sep-11 23:59N 32°42' W 117°09'0 0.0
2019-Sep-11 23:29N 32°42' W 117°09'0 0.0
2019-Sep-11 22:59N 32°42' W 117°09'0 0.0
2019-Sep-11 22:29N 32°42' W 117°09'0 0.0
2019-Sep-11 21:59N 32°42' W 117°09'0 0.0
2019-Sep-11 21:29N 32°42' W 117°09'0 0.0
2019-Sep-11 20:59N 32°42' W 117°09'0 0.0
2019-Sep-11 20:29N 32°42' W 117°09'0 0.0
2019-Sep-11 19:59N 32°42' W 117°09'0 0.0
2019-Sep-11 19:29N 32°42' W 117°09'0 0.0
2019-Sep-11 18:59N 32°42' W 117°09'0 0.0
2019-Sep-11 18:29N 32°42' W 117°09'0 0.0
2019-Sep-11 17:59N 32°42' W 117°09'0 0.0
2019-Sep-11 17:29N 32°42' W 117°09'0 0.0
2019-Sep-11 16:59N 32°42' W 117°09'0 0.0
2019-Sep-11 16:29N 32°42' W 117°09'0 0.0
2019-Sep-11 15:59N 32°42' W 117°09'0 0.0
2019-Sep-11 15:29N 32°42' W 117°09'0 0.0
2019-Sep-11 14:59N 32°42' W 117°09'0 0.0
2019-Sep-11 14:29N 32°42' W 117°09'0 0.0
2019-Sep-11 13:59N 32°42' W 117°09'0 0.0
2019-Sep-11 13:29N 32°42' W 117°09'0 0.0
2019-Sep-11 12:59N 32°42' W 117°09'0 0.0
2019-Sep-11 12:29N 32°42' W 117°09'0 0.0
2019-Sep-11 11:59N 32°42' W 117°09'0 0.0
2019-Sep-11 11:29N 32°42' W 117°09'0 0.0
2019-Sep-11 10:59N 32°42' W 117°09'0 0.0
2019-Sep-11 10:29N 32°42' W 117°09'0 0.0
2019-Sep-11 09:59N 32°42' W 117°09'0 0.0
2019-Sep-11 09:29N 32°42' W 117°09'0 0.0
2019-Sep-11 08:59N 32°42' W 117°09'0 0.0
2019-Sep-11 08:29N 32°42' W 117°09'0 0.0
2019-Sep-11 07:56N 32°42' W 117°09'0 0.0
2019-Sep-11 07:26N 32°42' W 117°09'0 0.0
2019-Sep-11 06:59N 32°42' W 117°09'0 0.0
2019-Sep-11 06:29N 32°42' W 117°09'0 0.0
2019-Sep-11 05:59N 32°42' W 117°09'0 0.0
2019-Sep-11 05:29N 32°42' W 117°09'0 0.0
2019-Sep-11 04:59N 32°42' W 117°09'0 0.0
2019-Sep-11 04:29N 32°42' W 117°09'0 0.0
2019-Sep-11 03:59N 32°42' W 117°09'0 0.0
2019-Sep-11 03:29N 32°42' W 117°09'0 0.0
2019-Sep-11 02:59N 32°42' W 117°09'0 0.0
2019-Sep-11 02:29N 32°42' W 117°09'0 0.0
2019-Sep-11 01:59N 32°42' W 117°09'0 0.0
2019-Sep-11 01:29N 32°42' W 117°09'0 0.0
2019-Sep-11 01:01N 32°42' W 117°09'0 0.0
2019-Sep-11 00:31N 32°42' W 117°09'0 0.0
2019-Sep-11 00:01N 32°42' W 117°09'0 0.0
2019-Sep-10 21:36N 32°42' W 117°09'0 0.0
2019-Sep-10 21:30N 32°42' W 117°09'0 0.0
2019-Sep-10 20:58N 32°42' W 117°09'0 0.0
2019-Sep-10 20:28N 32°42' W 117°09'0 0.0
2019-Sep-10 19:58N 32°42' W 117°09'0 0.0
2019-Sep-10 19:28N 32°42' W 117°09'0 0.0
2019-Sep-10 18:58N 32°42' W 117°09'0 0.0
2019-Sep-10 18:28N 32°42' W 117°09'0 0.0
2019-Sep-10 17:58N 32°42' W 117°09'0 0.0
2019-Sep-10 17:28N 32°42' W 117°09'0 0.0
2019-Sep-10 17:01N 32°42' W 117°09'0 0.0
2019-Sep-10 16:31N 32°42' W 117°09'0 0.0
2019-Sep-10 16:00N 32°42' W 117°09'0 0.0
2019-Sep-10 15:30N 32°42' W 117°09'0 0.0
2019-Sep-10 14:57N 32°42' W 117°09'0 0.0
2019-Sep-10 14:30N 32°42' W 117°09'0 0.0
2019-Sep-10 14:00N 32°42' W 117°09'0 0.0
2019-Sep-10 13:30N 32°42' W 117°09'0 0.0
2019-Sep-10 13:00N 32°42' W 117°09'0 0.0
2019-Sep-10 12:30N 32°42' W 117°09'0 0.0
2019-Sep-10 12:00N 32°42' W 117°09'0 0.0
2019-Sep-10 11:30N 32°42' W 117°09'0 0.0
2019-Sep-10 11:00N 32°42' W 117°09'0 0.0
2019-Sep-10 10:30N 32°42' W 117°09'0 0.0
2019-Sep-10 10:00N 32°42' W 117°09'0 0.0
2019-Sep-10 09:30N 32°42' W 117°09'0 0.0
2019-Sep-10 09:00N 32°42' W 117°09'0 0.0
2019-Sep-10 08:30N 32°42' W 117°09'0 0.0
2019-Sep-10 08:00N 32°42' W 117°09'0 0.0
2019-Sep-10 07:30N 32°42' W 117°09'0 0.0
2019-Sep-10 07:00N 32°42' W 117°09'0 0.0
2019-Sep-10 06:30N 32°42' W 117°09'0 0.0
2019-Sep-10 06:00N 32°42' W 117°09'0 0.0
2019-Sep-10 05:30N 32°42' W 117°09'0 0.0
2019-Sep-10 05:00N 32°42' W 117°09'0 0.0
2019-Sep-10 04:30N 32°42' W 117°09'0 0.0
2019-Sep-10 04:00N 32°42' W 117°09'0 0.0
2019-Sep-10 03:30N 32°42' W 117°09'0 0.0
2019-Sep-10 03:00N 32°42' W 117°09'0 0.0
2019-Sep-10 02:30N 32°42' W 117°09'0 0.8
2019-Sep-10 02:00N 32°42' W 117°10'0 0.0
2019-Sep-10 01:30N 32°42' W 117°10'0 0.0
2019-Sep-10 01:00N 32°42' W 117°10'0 0.0
2019-Sep-10 00:30N 32°42' W 117°10'0 0.0
2019-Sep-10 00:00N 32°42' W 117°10'0 0.0
2019-Sep-09 23:30N 32°42' W 117°10'0 0.0
2019-Sep-09 23:00N 32°42' W 117°10'0 0.0
2019-Sep-09 22:30N 32°42' W 117°10'0 0.0
2019-Sep-09 22:00N 32°42' W 117°10'0 0.0
2019-Sep-09 21:30N 32°42' W 117°10'0 0.0
2019-Sep-09 21:00N 32°42' W 117°10'0 0.0
2019-Sep-09 20:30N 32°42' W 117°10'0 0.0
2019-Sep-09 20:00N 32°42' W 117°10'0 0.0
2019-Sep-09 19:30N 32°42' W 117°10'0 0.0
2019-Sep-09 19:00N 32°42' W 117°10'0 0.0
2019-Sep-09 18:30N 32°42' W 117°10'0 0.0
2019-Sep-09 18:00N 32°42' W 117°10'0 0.0
2019-Sep-09 17:30N 32°42' W 117°10'0 0.0
2019-Sep-09 17:00N 32°42' W 117°10'0 0.0
2019-Sep-09 16:30N 32°42' W 117°10'0 0.0
2019-Sep-09 16:00N 32°42' W 117°10'0 0.0
2019-Sep-09 15:30N 32°42' W 117°10'0 0.0
2019-Sep-09 15:00N 32°42' W 117°10'0 0.0
2019-Sep-09 14:30N 32°42' W 117°10'0 0.7
2019-Sep-09 14:01N 32°42' W 117°09'0 0.2
2019-Sep-09 13:30N 32°42' W 117°09'0 0.0
2019-Sep-09 13:00N 32°42' W 117°09'0 0.0
2019-Sep-09 12:30N 32°42' W 117°09'0 0.0
2019-Sep-09 12:00N 32°42' W 117°09'0 0.0
2019-Sep-09 11:30N 32°42' W 117°09'0 0.0
2019-Sep-09 11:00N 32°42' W 117°09'0 0.0
2019-Sep-09 10:30N 32°42' W 117°09'0 0.0
2019-Sep-09 10:00N 32°42' W 117°09'0 0.0
2019-Sep-09 09:30N 32°42' W 117°09'0 0.0
2019-Sep-09 09:00N 32°42' W 117°09'0 0.0
2019-Sep-09 08:30N 32°42' W 117°09'0 0.0
2019-Sep-09 08:00N 32°42' W 117°09'0 0.0
2019-Sep-09 07:30N 32°42' W 117°09'0 0.0
2019-Sep-09 07:00N 32°42' W 117°09'0 0.0
2019-Sep-09 06:29N 32°42' W 117°09'0 0.0
2019-Sep-09 05:59N 32°42' W 117°09'0 0.0
2019-Sep-09 05:29N 32°42' W 117°09'0 0.0
2019-Sep-09 04:59N 32°42' W 117°09'0 0.0
2019-Sep-09 04:29N 32°42' W 117°09'0 0.0
2019-Sep-09 03:59N 32°42' W 117°09'0 0.0
2019-Sep-09 03:29N 32°42' W 117°09'0 0.0
2019-Sep-09 02:59N 32°42' W 117°09'0 0.0
2019-Sep-09 01:59N 32°42' W 117°09'0 0.0
2019-Sep-09 01:29N 32°42' W 117°09'0 0.0
2019-Sep-09 00:59N 32°42' W 117°09'0 0.0
2019-Sep-09 00:29N 32°42' W 117°09'0 0.0
2019-Sep-08 23:59N 32°42' W 117°09'0 0.0
2019-Sep-08 23:29N 32°42' W 117°09'0 0.0
2019-Sep-08 22:59N 32°42' W 117°09'0 0.0
2019-Sep-08 22:29N 32°42' W 117°09'0 0.0
2019-Sep-08 21:56N 32°42' W 117°09'0 0.0
2019-Sep-08 21:29N 32°42' W 117°09'0 0.0
2019-Sep-08 20:59N 32°42' W 117°09'0 0.0
2019-Sep-08 20:29N 32°42' W 117°09'0 0.0
2019-Sep-08 19:56N 32°42' W 117°09'0 0.0
2019-Sep-08 19:29N 32°42' W 117°09'0 0.0
2019-Sep-08 18:59N 32°42' W 117°09'0 0.0
2019-Sep-08 18:29N 32°42' W 117°09'0 0.0
2019-Sep-08 17:59N 32°42' W 117°09'0 0.0
2019-Sep-08 17:29N 32°42' W 117°09'0 0.0
2019-Sep-08 16:59N 32°42' W 117°09'0 0.0
2019-Sep-08 16:29N 32°42' W 117°09'0 0.0
2019-Sep-08 15:59N 32°42' W 117°09'0 0.0
2019-Sep-08 15:29N 32°42' W 117°09'0 0.0
2019-Sep-08 14:59N 32°42' W 117°09'0 0.0
2019-Sep-08 14:29N 32°42' W 117°09'0 0.0
2019-Sep-08 13:59N 32°42' W 117°09'0 0.0
2019-Sep-08 13:29N 32°42' W 117°09'0 0.0
2019-Sep-08 12:59N 32°42' W 117°09'0 0.0
2019-Sep-08 12:29N 32°42' W 117°09'0 0.0
2019-Sep-08 11:59N 32°42' W 117°09'0 0.0
2019-Sep-08 11:29N 32°42' W 117°09'0 0.0
2019-Sep-08 10:59N 32°42' W 117°09'0 0.0
2019-Sep-08 10:29N 32°42' W 117°09'0 0.0
2019-Sep-08 09:59N 32°42' W 117°09'0 0.0
2019-Sep-08 09:29N 32°42' W 117°09'0 0.0
2019-Sep-08 08:59N 32°42' W 117°09'0 0.0
2019-Sep-08 08:29N 32°42' W 117°09'0 0.0
2019-Sep-08 07:59N 32°42' W 117°09'0 0.0
2019-Sep-08 07:29N 32°42' W 117°09'0 0.0
2019-Sep-08 06:59N 32°42' W 117°09'0 0.0
2019-Sep-08 06:29N 32°42' W 117°09'0 0.0
2019-Sep-08 05:59N 32°42' W 117°09'0 0.0
2019-Sep-08 05:29N 32°42' W 117°09'0 0.0
2019-Sep-08 04:59N 32°42' W 117°09'0 0.0
2019-Sep-08 04:29N 32°42' W 117°09'0 0.0
2019-Sep-08 03:59N 32°42' W 117°09'0 0.0
2019-Sep-08 03:29N 32°42' W 117°09'0 0.0
2019-Sep-08 02:59N 32°42' W 117°09'0 0.0
2019-Sep-08 02:29N 32°42' W 117°09'0 0.0
2019-Sep-08 01:59N 32°42' W 117°09'0 0.0
2019-Sep-08 01:29N 32°42' W 117°09'0 0.0
2019-Sep-08 00:59N 32°42' W 117°09'0 0.0
2019-Sep-08 00:29N 32°42' W 117°09'0 0.0
2019-Sep-07 23:59N 32°42' W 117°09'0 0.0
2019-Sep-07 23:29N 32°42' W 117°09'0 0.0
2019-Sep-07 22:59N 32°42' W 117°09'0 0.0
2019-Sep-07 22:29N 32°42' W 117°09'0 0.0
2019-Sep-07 21:59N 32°42' W 117°09'0 0.0
2019-Sep-07 21:29N 32°42' W 117°09'0 0.0
2019-Sep-07 20:59N 32°42' W 117°09'0 0.0
2019-Sep-07 20:29N 32°42' W 117°09'0 0.0
2019-Sep-07 19:58N 32°42' W 117°09'0 0.0
2019-Sep-07 19:28N 32°42' W 117°09'1 1.1
2019-Sep-07 18:59N 32°42' W 117°10'0 0.0
2019-Sep-07 18:29N 32°42' W 117°10'0 0.0
2019-Sep-07 17:59N 32°42' W 117°10'0 0.0
2019-Sep-07 17:29N 32°42' W 117°10'0 0.0
2019-Sep-07 16:59N 32°42' W 117°10'0 0.0
2019-Sep-07 16:29N 32°42' W 117°10'0 0.0
2019-Sep-07 15:59N 32°42' W 117°10'0 0.0
2019-Sep-07 15:29N 32°42' W 117°10'0 0.0
2019-Sep-07 14:59N 32°42' W 117°10'0 0.0
2019-Sep-07 14:26N 32°42' W 117°10'0 0.0
2019-Sep-07 13:59N 32°42' W 117°10'0 0.0
2019-Sep-07 13:29N 32°42' W 117°10'0 0.0
2019-Sep-07 12:59N 32°42' W 117°10'0 0.0
2019-Sep-07 12:29N 32°42' W 117°10'0 0.0
2019-Sep-07 11:59N 32°42' W 117°10'0 0.0
2019-Sep-07 11:29N 32°42' W 117°10'0 0.0
2019-Sep-07 10:59N 32°42' W 117°10'0 0.0
2019-Sep-07 10:29N 32°42' W 117°10'0 0.0
2019-Sep-07 09:59N 32°42' W 117°10'0 0.0
2019-Sep-07 09:29N 32°42' W 117°10'0 0.0
2019-Sep-07 08:59N 32°42' W 117°10'0 0.0
2019-Sep-07 08:29N 32°42' W 117°10'0 0.0
2019-Sep-07 07:59N 32°42' W 117°10'0 0.0
2019-Sep-07 07:29N 32°42' W 117°10'0 0.0
2019-Sep-07 06:59N 32°42' W 117°10'0 0.0
2019-Sep-07 06:29N 32°42' W 117°10'0 0.0
2019-Sep-07 05:59N 32°42' W 117°10'0 0.0
2019-Sep-07 05:26N 32°42' W 117°10'0 0.0
2019-Sep-07 04:59N 32°42' W 117°10'0 0.0
2019-Sep-07 04:29N 32°42' W 117°10'0 0.0
2019-Sep-07 03:59N 32°42' W 117°10'0 0.0
2019-Sep-07 03:29N 32°42' W 117°10'0 0.0
2019-Sep-07 02:59N 32°42' W 117°10'0 0.0
2019-Sep-07 02:29N 32°42' W 117°10'0 0.0
2019-Sep-07 01:59N 32°42' W 117°10'0 0.0
2019-Sep-07 01:29N 32°42' W 117°10'0 0.0
2019-Sep-07 00:59N 32°42' W 117°10'0 0.0
2019-Sep-07 00:29N 32°42' W 117°10'0 0.0
2019-Sep-06 23:59N 32°42' W 117°10'0 0.0
2019-Sep-06 23:29N 32°42' W 117°10'0 0.0
2019-Sep-06 22:59N 32°42' W 117°10'0 0.0
2019-Sep-06 22:29N 32°42' W 117°10'0 0.0
2019-Sep-06 21:59N 32°42' W 117°10'0 0.0
2019-Sep-06 21:30N 32°42' W 117°10'0 0.0
2019-Sep-06 21:00N 32°42' W 117°10'0 0.3
2019-Sep-06 20:30N 32°42' W 117°10'4 7.0
2019-Sep-06 20:00N 32°41' W 117°14'4 7.8
2019-Sep-06 19:30N 32°38' W 117°16'510.9
2019-Sep-06 19:00N 32°40' W 117°21'510.7
2019-Sep-06 18:30N 32°43' W 117°27'510.7
2019-Sep-06 18:00N 32°46' W 117°32'510.3
2019-Sep-06 17:30N 32°48' W 117°38'510.1
2019-Sep-06 17:00N 32°51' W 117°43'510.1
2019-Sep-06 16:30N 32°54' W 117°48'5 9.8
2019-Sep-06 16:00N 32°56' W 117°53'5 9.9
2019-Sep-06 15:30N 32°59' W 117°58'4 8.8
2019-Sep-06 15:00N 33°00' W 118°03'5 9.1
2019-Sep-06 14:30N 33°03' W 118°07'5 9.9
2019-Sep-06 14:00N 33°06' W 118°12'510.7
2019-Sep-06 13:30N 33°09' W 118°17'510.9
2019-Sep-06 13:00N 33°11' W 118°23'510.5
2019-Sep-06 12:30N 33°14' W 118°28'510.1
2019-Sep-06 12:00N 33°17' W 118°33'510.1
2019-Sep-06 11:30N 33°20' W 118°38'5 9.8
2019-Sep-06 11:00N 33°22' W 118°43'510.1
2019-Sep-06 10:29N 33°25' W 118°49'510.4
2019-Sep-06 10:00N 33°28' W 118°54'5 9.8
2019-Sep-06 09:28N 33°31' W 118°59'510.1
2019-Sep-06 09:00N 33°33' W 119°03'710.5
2019-Sep-06 08:20N 33°37' W 119°11'310.1
2019-Sep-06 08:00N 33°38' W 119°15'610.0
2019-Sep-06 07:23N 33°41' W 119°21'410.0
2019-Sep-06 06:57N 33°43' W 119°26'410.1
2019-Sep-06 06:30N 33°46' W 119°30'510.2
2019-Sep-06 06:00N 33°48' W 119°36'510.2
2019-Sep-06 05:30N 33°51' W 119°41'510.3
2019-Sep-06 05:00N 33°53' W 119°46'510.5
2019-Sep-06 04:30N 33°56' W 119°52'910.6
2019-Sep-06 03:37N 34°03' W 119°59'  

Dump ship's entire track history